CDEEF LFML-LFMD
Flight info
| Callsign | CDEEF |
|---|---|
| Flight time | 0h 45m |
| Altitude | 4000 |
| Route | LFML LACAZ GANGU SOKDI LFMD |
| Aircraft | BN2A/L-SDFGRYL/S |
Departure
| Time | 2026-04-29 21:54 |
|---|---|
| Airport | Marseille Provence Airport (LFML) |
Arrival
| Time | 2026-04-29 22:39 |
|---|---|
| Airport | Cannes Mandelieu Airport (LFMD) |
| Time | Latitude | Longitude | Altitude | Speed | Heading |
|---|---|---|---|---|---|
| 2026-04-29 21:12 | 43.44494 | 5.21542 | 8 ft | 0 kts | 341° |
| 2026-04-29 21:39 | 43.44501 | 5.21544 | 8 ft | 3 kts | 27° |
| 2026-04-29 21:39 | 43.44490 | 5.21586 | 9 ft | 6 kts | 149° |
| 2026-04-29 21:39 | 43.44453 | 5.21611 | 10 ft | 7 kts | 152° |
| 2026-04-29 21:39 | 43.44403 | 5.21639 | 12 ft | 7 kts | 188° |
| 2026-04-29 21:40 | 43.44356 | 5.21567 | 11 ft | 13 kts | 239° |
| 2026-04-29 21:40 | 43.44327 | 5.21499 | 10 ft | 0 kts | 239° |
| 2026-04-29 21:41 | 43.44324 | 5.21491 | 10 ft | 0 kts | 239° |
| 2026-04-29 21:41 | 43.44317 | 5.21473 | 10 ft | 4 kts | 241° |
| 2026-04-29 21:41 | 43.44294 | 5.21413 | 11 ft | 9 kts | 243° |
| 2026-04-29 21:42 | 43.44258 | 5.21317 | 12 ft | 12 kts | 241° |
| 2026-04-29 21:42 | 43.44211 | 5.21201 | 12 ft | 14 kts | 244° |
| 2026-04-29 21:42 | 43.44159 | 5.21091 | 14 ft | 12 kts | 216° |
| 2026-04-29 21:42 | 43.44094 | 5.21082 | 15 ft | 0 kts | 162° |
| 2026-04-29 21:43 | 43.44083 | 5.21086 | 15 ft | 0 kts | 164° |
| 2026-04-29 21:43 | 43.44078 | 5.21095 | 15 ft | 3 kts | 102° |
| 2026-04-29 21:43 | 43.44110 | 5.21141 | 14 ft | 9 kts | 62° |
| 2026-04-29 21:43 | 43.44087 | 5.21243 | 15 ft | 14 kts | 142° |
| 2026-04-29 21:44 | 43.44011 | 5.21356 | 16 ft | 17 kts | 134° |
| 2026-04-29 21:44 | 43.43928 | 5.21480 | 18 ft | 14 kts | 119° |
| 2026-04-29 21:44 | 43.43963 | 5.21610 | 17 ft | 14 kts | 41° |
| 2026-04-29 21:44 | 43.43970 | 5.21701 | 18 ft | 12 kts | 127° |
| 2026-04-29 21:45 | 43.43909 | 5.21799 | 21 ft | 14 kts | 131° |
| 2026-04-29 21:45 | 43.43835 | 5.21905 | 24 ft | 16 kts | 134° |
| 2026-04-29 21:45 | 43.43751 | 5.22014 | 28 ft | 16 kts | 146° |
| 2026-04-29 21:45 | 43.43646 | 5.22099 | 32 ft | 17 kts | 145° |
| 2026-04-29 21:46 | 43.43545 | 5.22181 | 38 ft | 16 kts | 151° |
| 2026-04-29 21:46 | 43.43449 | 5.22260 | 44 ft | 14 kts | 151° |
| 2026-04-29 21:46 | 43.43352 | 5.22302 | 48 ft | 14 kts | 157° |
| 2026-04-29 21:46 | 43.43281 | 5.22397 | 51 ft | 15 kts | 133° |
| 2026-04-29 21:47 | 43.43205 | 5.22504 | 55 ft | 15 kts | 135° |
| 2026-04-29 21:47 | 43.43128 | 5.22612 | 59 ft | 16 kts | 134° |
| 2026-04-29 21:47 | 43.43048 | 5.22727 | 63 ft | 16 kts | 133° |
| 2026-04-29 21:47 | 43.42983 | 5.22820 | 68 ft | 4 kts | 129° |
| 2026-04-29 21:48 | 43.42953 | 5.22861 | 70 ft | 7 kts | 137° |
| 2026-04-29 21:48 | 43.42903 | 5.22932 | 73 ft | 9 kts | 135° |
| 2026-04-29 21:48 | 43.42829 | 5.22952 | 73 ft | 10 kts | 205° |
| 2026-04-29 21:48 | 43.42796 | 5.22919 | 73 ft | 0 kts | 222° |
| 2026-04-29 21:49 | 43.42796 | 5.22918 | 73 ft | 1 kts | 223° |
| 2026-04-29 21:49 | 43.42765 | 5.22865 | 71 ft | 7 kts | 239° |
| 2026-04-29 21:49 | 43.42713 | 5.22784 | 70 ft | 8 kts | 217° |
| 2026-04-29 21:50 | 43.42676 | 5.22754 | 69 ft | 4 kts | 239° |
| 2026-04-29 21:50 | 43.42651 | 5.22643 | 65 ft | 16 kts | 252° |
| 2026-04-29 21:50 | 43.42633 | 5.22562 | 63 ft | 0 kts | 253° |
| 2026-04-29 21:53 | 43.42633 | 5.22561 | 63 ft | 1 kts | 253° |
| 2026-04-29 21:53 | 43.42616 | 5.22476 | 61 ft | 6 kts | 255° |
| 2026-04-29 21:53 | 43.42680 | 5.22306 | 58 ft | 42 kts | 314° |
| 2026-04-29 21:53 | 43.42996 | 5.21868 | 107 ft | 78 kts | 314° |
| 2026-04-29 21:54 | 43.43412 | 5.21290 | 284 ft | 90 kts | 314° |
| 2026-04-29 21:54 | 43.43860 | 5.20688 | 518 ft | 92 kts | 315° |
| 2026-04-29 21:54 | 43.44325 | 5.20033 | 721 ft | 98 kts | 315° |
| 2026-04-29 21:54 | 43.44802 | 5.19346 | 922 ft | 102 kts | 316° |
| 2026-04-29 21:55 | 43.45287 | 5.18619 | 1123 ft | 105 kts | 315° |
| 2026-04-29 21:55 | 43.45787 | 5.17852 | 1326 ft | 107 kts | 315° |
| 2026-04-29 21:55 | 43.46291 | 5.17095 | 1551 ft | 104 kts | 327° |
| 2026-04-29 21:55 | 43.46911 | 5.16991 | 1802 ft | 86 kts | 41° |
| 2026-04-29 21:56 | 43.47296 | 5.17579 | 2005 ft | 85 kts | 55° |
| 2026-04-29 21:56 | 43.47543 | 5.18318 | 2133 ft | 87 kts | 75° |
| 2026-04-29 21:56 | 43.47648 | 5.19138 | 2292 ft | 87 kts | 83° |
| 2026-04-29 21:56 | 43.47697 | 5.19977 | 2455 ft | 88 kts | 89° |
| 2026-04-29 21:57 | 43.47645 | 5.20811 | 2595 ft | 89 kts | 97° |
| 2026-04-29 21:57 | 43.47513 | 5.21650 | 2760 ft | 88 kts | 102° |
| 2026-04-29 21:57 | 43.47337 | 5.22450 | 2920 ft | 88 kts | 108° |
| 2026-04-29 21:57 | 43.47088 | 5.23359 | 2805 ft | 108 kts | 111° |
| 2026-04-29 21:58 | 43.46775 | 5.24241 | 2969 ft | 101 kts | 115° |
| 2026-04-29 21:58 | 43.46390 | 5.25067 | 3065 ft | 101 kts | 122° |
| 2026-04-29 21:58 | 43.45924 | 5.25812 | 3084 ft | 112 kts | 129° |
| 2026-04-29 21:58 | 43.45346 | 5.26671 | 2939 ft | 128 kts | 128° |
| 2026-04-29 21:59 | 43.44840 | 5.27696 | 2962 ft | 127 kts | 118° |
| 2026-04-29 21:59 | 43.44367 | 5.28700 | 3050 ft | 124 kts | 121° |
| 2026-04-29 21:59 | 43.43830 | 5.29591 | 3173 ft | 121 kts | 131° |
| 2026-04-29 21:59 | 43.43211 | 5.30371 | 3306 ft | 117 kts | 135° |
| 2026-04-29 22:00 | 43.42594 | 5.31096 | 3435 ft | 115 kts | 135° |
| 2026-04-29 22:00 | 43.41976 | 5.31814 | 3523 ft | 117 kts | 135° |
| 2026-04-29 22:00 | 43.41379 | 5.32533 | 3694 ft | 111 kts | 133° |
| 2026-04-29 22:00 | 43.40874 | 5.33271 | 3911 ft | 102 kts | 127° |
| 2026-04-29 22:01 | 43.40332 | 5.33962 | 3964 ft | 111 kts | 136° |
| 2026-04-29 22:01 | 43.39743 | 5.34652 | 4158 ft | 107 kts | 135° |
| 2026-04-29 22:01 | 43.39257 | 5.35375 | 4331 ft | 105 kts | 129° |
| 2026-04-29 22:01 | 43.38756 | 5.36138 | 4447 ft | 108 kts | 128° |
| 2026-04-29 22:02 | 43.38294 | 5.36931 | 4641 ft | 102 kts | 120° |
| 2026-04-29 22:02 | 43.38096 | 5.37781 | 4903 ft | 90 kts | 84° |
| 2026-04-29 22:02 | 43.38292 | 5.38596 | 5064 ft | 94 kts | 60° |
| 2026-04-29 22:02 | 43.38672 | 5.39456 | 5034 ft | 113 kts | 61° |
| 2026-04-29 22:03 | 43.39094 | 5.40414 | 5074 ft | 121 kts | 61° |
| 2026-04-29 22:03 | 43.39542 | 5.41437 | 5075 ft | 129 kts | 61° |
| 2026-04-29 22:03 | 43.40014 | 5.42517 | 5072 ft | 133 kts | 60° |
| 2026-04-29 22:03 | 43.40492 | 5.43618 | 5071 ft | 135 kts | 60° |
| 2026-04-29 22:04 | 43.40967 | 5.44730 | 5072 ft | 135 kts | 61° |
| 2026-04-29 22:04 | 43.41444 | 5.45852 | 5070 ft | 136 kts | 61° |
| 2026-04-29 22:04 | 43.42082 | 5.47350 | 5070 ft | 136 kts | 61° |
| 2026-04-29 22:04 | 43.42402 | 5.48101 | 5070 ft | 136 kts | 61° |
| 2026-04-29 22:05 | 43.42881 | 5.49224 | 5071 ft | 136 kts | 61° |
| 2026-04-29 22:05 | 43.43357 | 5.50344 | 5070 ft | 135 kts | 61° |
| 2026-04-29 22:05 | 43.44304 | 5.52568 | 5070 ft | 133 kts | 60° |
| 2026-04-29 22:06 | 43.44768 | 5.53669 | 5071 ft | 133 kts | 60° |
| 2026-04-29 22:06 | 43.45230 | 5.54771 | 5072 ft | 132 kts | 60° |
| 2026-04-29 22:06 | 43.45684 | 5.55863 | 5071 ft | 132 kts | 61° |
| 2026-04-29 22:06 | 43.46137 | 5.56954 | 5073 ft | 132 kts | 61° |
| 2026-04-29 22:07 | 43.46590 | 5.58049 | 5073 ft | 132 kts | 61° |
| 2026-04-29 22:07 | 43.47046 | 5.59149 | 5071 ft | 132 kts | 61° |
| 2026-04-29 22:07 | 43.47507 | 5.60246 | 5071 ft | 132 kts | 60° |
| 2026-04-29 22:07 | 43.47971 | 5.61349 | 5070 ft | 132 kts | 61° |
| 2026-04-29 22:08 | 43.48433 | 5.62442 | 5072 ft | 132 kts | 60° |
| 2026-04-29 22:08 | 43.48896 | 5.63546 | 5073 ft | 132 kts | 60° |
| 2026-04-29 22:08 | 43.49350 | 5.64642 | 5073 ft | 132 kts | 61° |
| 2026-04-29 22:08 | 43.49807 | 5.65747 | 5074 ft | 132 kts | 61° |
| 2026-04-29 22:09 | 43.50259 | 5.66848 | 5076 ft | 132 kts | 61° |
| 2026-04-29 22:09 | 43.50691 | 5.67958 | 5073 ft | 132 kts | 71° |
| 2026-04-29 22:09 | 43.50682 | 5.69209 | 5076 ft | 132 kts | 103° |
| 2026-04-29 22:09 | 43.50251 | 5.70337 | 5077 ft | 133 kts | 119° |
| 2026-04-29 22:10 | 43.49759 | 5.71426 | 5075 ft | 134 kts | 119° |
| 2026-04-29 22:10 | 43.49264 | 5.72516 | 5075 ft | 134 kts | 120° |
| 2026-04-29 22:10 | 43.48772 | 5.73608 | 5076 ft | 135 kts | 117° |
| 2026-04-29 22:10 | 43.48330 | 5.74744 | 5077 ft | 135 kts | 115° |
| 2026-04-29 22:11 | 43.47888 | 5.75892 | 5077 ft | 135 kts | 115° |
| 2026-04-29 22:11 | 43.47445 | 5.77041 | 5076 ft | 135 kts | 115° |
| 2026-04-29 22:11 | 43.47006 | 5.78180 | 5077 ft | 136 kts | 115° |
| 2026-04-29 22:11 | 43.46564 | 5.79326 | 5076 ft | 135 kts | 115° |
| 2026-04-29 22:12 | 43.46135 | 5.80487 | 5076 ft | 135 kts | 109° |
| 2026-04-29 22:12 | 43.45886 | 5.81708 | 5078 ft | 133 kts | 98° |
| 2026-04-29 22:12 | 43.45775 | 5.82974 | 5077 ft | 133 kts | 92° |
| 2026-04-29 22:12 | 43.45736 | 5.84250 | 5077 ft | 133 kts | 89° |
| 2026-04-29 22:13 | 43.45735 | 5.85512 | 5077 ft | 133 kts | 88° |
| 2026-04-29 22:13 | 43.45752 | 5.86786 | 5077 ft | 133 kts | 87° |
| 2026-04-29 22:13 | 43.45778 | 5.88065 | 5078 ft | 133 kts | 86° |
| 2026-04-29 22:13 | 43.45809 | 5.89347 | 5078 ft | 134 kts | 86° |
| 2026-04-29 22:14 | 43.45840 | 5.90625 | 5077 ft | 134 kts | 86° |
| 2026-04-29 22:14 | 43.45873 | 5.91910 | 5075 ft | 134 kts | 86° |
| 2026-04-29 22:14 | 43.45906 | 5.93190 | 5074 ft | 133 kts | 86° |
| 2026-04-29 22:14 | 43.45938 | 5.94466 | 5072 ft | 133 kts | 86° |
| 2026-04-29 22:15 | 43.45970 | 5.95739 | 5070 ft | 133 kts | 86° |
| 2026-04-29 22:15 | 43.46003 | 5.97015 | 5068 ft | 133 kts | 86° |
| 2026-04-29 22:15 | 43.46035 | 5.98280 | 5065 ft | 133 kts | 86° |
| 2026-04-29 22:15 | 43.46068 | 5.99564 | 5063 ft | 133 kts | 86° |
| 2026-04-29 22:16 | 43.46100 | 6.00821 | 5063 ft | 133 kts | 86° |
| 2026-04-29 22:16 | 43.46131 | 6.02088 | 5064 ft | 132 kts | 86° |
| 2026-04-29 22:16 | 43.46164 | 6.03355 | 5064 ft | 133 kts | 86° |
| 2026-04-29 22:16 | 43.46195 | 6.04628 | 5065 ft | 133 kts | 86° |
| 2026-04-29 22:17 | 43.46227 | 6.05895 | 5064 ft | 129 kts | 86° |
| 2026-04-29 22:17 | 43.46257 | 6.07118 | 4967 ft | 130 kts | 86° |
| 2026-04-29 22:17 | 43.46294 | 6.08372 | 4841 ft | 131 kts | 82° |
| 2026-04-29 22:17 | 43.46446 | 6.09596 | 4716 ft | 131 kts | 77° |
| 2026-04-29 22:18 | 43.46619 | 6.10839 | 4590 ft | 131 kts | 77° |
| 2026-04-29 22:18 | 43.46791 | 6.12075 | 4468 ft | 131 kts | 77° |
| 2026-04-29 22:18 | 43.46964 | 6.13315 | 4342 ft | 131 kts | 77° |
| 2026-04-29 22:18 | 43.47133 | 6.14538 | 4218 ft | 131 kts | 77° |
| 2026-04-29 22:19 | 43.47304 | 6.15766 | 4094 ft | 130 kts | 77° |
| 2026-04-29 22:19 | 43.47474 | 6.16994 | 3971 ft | 130 kts | 77° |
| 2026-04-29 22:19 | 43.47643 | 6.18219 | 3848 ft | 130 kts | 77° |
| 2026-04-29 22:19 | 43.47811 | 6.19432 | 3722 ft | 129 kts | 77° |
| 2026-04-29 22:20 | 43.47978 | 6.20643 | 3598 ft | 129 kts | 77° |
| 2026-04-29 22:20 | 43.48145 | 6.21853 | 3476 ft | 129 kts | 77° |
| 2026-04-29 22:20 | 43.48312 | 6.23068 | 3354 ft | 128 kts | 77° |
| 2026-04-29 22:20 | 43.48477 | 6.24269 | 3232 ft | 127 kts | 77° |
| 2026-04-29 22:21 | 43.48641 | 6.25462 | 3108 ft | 128 kts | 77° |
| 2026-04-29 22:21 | 43.48806 | 6.26664 | 3031 ft | 124 kts | 77° |
| 2026-04-29 22:21 | 43.48963 | 6.27810 | 3044 ft | 121 kts | 76° |
| 2026-04-29 22:21 | 43.49118 | 6.28939 | 3045 ft | 120 kts | 76° |
| 2026-04-29 22:22 | 43.49272 | 6.30064 | 3045 ft | 120 kts | 76° |
| 2026-04-29 22:22 | 43.49429 | 6.31207 | 3053 ft | 120 kts | 76° |
| 2026-04-29 22:22 | 43.49582 | 6.32332 | 3050 ft | 120 kts | 76° |
| 2026-04-29 22:22 | 43.49737 | 6.33465 | 3048 ft | 120 kts | 76° |
| 2026-04-29 22:23 | 43.49892 | 6.34592 | 3041 ft | 119 kts | 76° |
| 2026-04-29 22:23 | 43.50045 | 6.35711 | 3040 ft | 118 kts | 77° |
| 2026-04-29 22:23 | 43.50196 | 6.36815 | 3040 ft | 118 kts | 76° |
| 2026-04-29 22:23 | 43.50346 | 6.37926 | 3047 ft | 117 kts | 76° |
| 2026-04-29 22:24 | 43.50498 | 6.39040 | 3055 ft | 118 kts | 76° |
| 2026-04-29 22:24 | 43.50649 | 6.40152 | 3051 ft | 119 kts | 76° |
| 2026-04-29 22:24 | 43.50801 | 6.41266 | 3044 ft | 119 kts | 76° |
| 2026-04-29 22:24 | 43.50952 | 6.42380 | 3049 ft | 119 kts | 76° |
| 2026-04-29 22:25 | 43.51105 | 6.43511 | 3052 ft | 119 kts | 76° |
| 2026-04-29 22:25 | 43.51257 | 6.44624 | 3043 ft | 119 kts | 76° |
| 2026-04-29 22:25 | 43.51408 | 6.45735 | 3037 ft | 118 kts | 76° |
| 2026-04-29 22:25 | 43.51557 | 6.46844 | 3049 ft | 117 kts | 76° |
| 2026-04-29 22:26 | 43.51707 | 6.47944 | 3047 ft | 118 kts | 76° |
| 2026-04-29 22:26 | 43.51857 | 6.49053 | 3048 ft | 118 kts | 76° |
| 2026-04-29 22:26 | 43.52007 | 6.50163 | 3052 ft | 118 kts | 76° |
| 2026-04-29 22:26 | 43.52158 | 6.51282 | 3046 ft | 118 kts | 76° |
| 2026-04-29 22:27 | 43.52309 | 6.52396 | 3047 ft | 118 kts | 76° |
| 2026-04-29 22:27 | 43.52459 | 6.53515 | 3049 ft | 117 kts | 76° |
| 2026-04-29 22:27 | 43.52609 | 6.54622 | 3047 ft | 117 kts | 76° |
| 2026-04-29 22:27 | 43.52757 | 6.55723 | 3050 ft | 117 kts | 76° |
| 2026-04-29 22:28 | 43.52905 | 6.56832 | 3054 ft | 118 kts | 76° |
| 2026-04-29 22:28 | 43.53056 | 6.57949 | 3054 ft | 118 kts | 76° |
| 2026-04-29 22:28 | 43.53206 | 6.59063 | 3046 ft | 118 kts | 76° |
| 2026-04-29 22:28 | 43.53353 | 6.60161 | 3048 ft | 118 kts | 75° |
| 2026-04-29 22:29 | 43.53504 | 6.61280 | 3040 ft | 117 kts | 76° |
| 2026-04-29 22:29 | 43.53651 | 6.62388 | 3039 ft | 116 kts | 75° |
| 2026-04-29 22:29 | 43.53797 | 6.63476 | 3054 ft | 116 kts | 76° |
| 2026-04-29 22:29 | 43.53945 | 6.64581 | 3051 ft | 117 kts | 76° |
| 2026-04-29 22:30 | 43.54093 | 6.65688 | 3065 ft | 118 kts | 76° |
| 2026-04-29 22:30 | 43.54242 | 6.66802 | 3062 ft | 119 kts | 77° |
| 2026-04-29 22:30 | 43.54171 | 6.67936 | 3065 ft | 122 kts | 103° |
| 2026-04-29 22:30 | 43.53902 | 6.69062 | 3058 ft | 123 kts | 103° |
| 2026-04-29 22:31 | 43.53620 | 6.70191 | 3053 ft | 124 kts | 104° |
| 2026-04-29 22:31 | 43.53334 | 6.71308 | 3051 ft | 123 kts | 104° |
| 2026-04-29 22:31 | 43.53050 | 6.72415 | 3061 ft | 123 kts | 104° |
| 2026-04-29 22:31 | 43.52761 | 6.73533 | 3062 ft | 124 kts | 104° |
| 2026-04-29 22:32 | 43.52472 | 6.74637 | 3060 ft | 121 kts | 104° |
| 2026-04-29 22:32 | 43.52191 | 6.75718 | 3053 ft | 117 kts | 104° |
| 2026-04-29 22:32 | 43.51921 | 6.76757 | 3054 ft | 115 kts | 103° |
| 2026-04-29 22:32 | 43.51653 | 6.77787 | 3048 ft | 113 kts | 104° |
| 2026-04-29 22:33 | 43.51386 | 6.78808 | 3056 ft | 111 kts | 103° |
| 2026-04-29 22:33 | 43.51127 | 6.79806 | 3058 ft | 111 kts | 103° |
| 2026-04-29 22:33 | 43.50868 | 6.80799 | 3057 ft | 110 kts | 103° |
| 2026-04-29 22:33 | 43.50608 | 6.81792 | 3057 ft | 110 kts | 104° |
| 2026-04-29 22:34 | 43.50349 | 6.82788 | 3083 ft | 111 kts | 104° |
| 2026-04-29 22:34 | 43.50085 | 6.83803 | 3059 ft | 113 kts | 104° |
| 2026-04-29 22:34 | 43.49821 | 6.84807 | 3039 ft | 110 kts | 104° |
| 2026-04-29 22:34 | 43.49563 | 6.85794 | 3058 ft | 109 kts | 104° |
| 2026-04-29 22:35 | 43.49298 | 6.86810 | 2927 ft | 116 kts | 103° |
| 2026-04-29 22:35 | 43.49023 | 6.87866 | 2814 ft | 119 kts | 104° |
| 2026-04-29 22:35 | 43.48737 | 6.88958 | 2679 ft | 121 kts | 103° |
| 2026-04-29 22:35 | 43.48452 | 6.90050 | 2537 ft | 122 kts | 103° |
| 2026-04-29 22:36 | 43.48161 | 6.91160 | 2391 ft | 124 kts | 103° |
| 2026-04-29 22:36 | 43.47865 | 6.92286 | 2228 ft | 125 kts | 103° |
| 2026-04-29 22:36 | 43.47573 | 6.93404 | 2057 ft | 123 kts | 104° |
| 2026-04-29 22:36 | 43.47489 | 6.94516 | 1878 ft | 115 kts | 69° |
| 2026-04-29 22:37 | 43.47998 | 6.95306 | 1708 ft | 113 kts | 31° |
| 2026-04-29 22:37 | 43.48749 | 6.95692 | 1533 ft | 115 kts | 19° |
| 2026-04-29 22:37 | 43.49542 | 6.95892 | 1356 ft | 118 kts | 3° |
| 2026-04-29 22:37 | 43.50357 | 6.95823 | 1189 ft | 115 kts | 1° |
| 2026-04-29 22:38 | 43.51085 | 6.95720 | 1037 ft | 96 kts | 355° |
| 2026-04-29 22:38 | 43.51730 | 6.95589 | 715 ft | 98 kts | 354° |
| 2026-04-29 22:38 | 43.52372 | 6.95485 | 502 ft | 90 kts | 356° |
| 2026-04-29 22:38 | 43.52925 | 6.95417 | 378 ft | 73 kts | 355° |
| 2026-04-29 22:39 | 43.53453 | 6.95322 | 240 ft | 76 kts | 351° |
| 2026-04-29 22:39 | 43.53973 | 6.95233 | 141 ft | 72 kts | 354° |
| 2026-04-29 22:39 | 43.54450 | 6.95141 | 20 ft | 66 kts | 352° |
| 2026-04-29 22:39 | 43.54859 | 6.95073 | 11 ft | 48 kts | 355° |
| 2026-04-29 22:40 | 43.54997 | 6.95082 | 12 ft | 9 kts | 65° |
| 2026-04-29 22:40 | 43.55004 | 6.95148 | 12 ft | 4 kts | 84° |
| 2026-04-29 22:40 | 43.55023 | 6.95203 | 14 ft | 8 kts | 25° |
| 2026-04-29 22:40 | 43.55062 | 6.95244 | 15 ft | 9 kts | 75° |
| 2026-04-29 22:41 | 43.55077 | 6.95291 | 15 ft | 0 kts | 78° |
| 2026-04-29 22:41 | 43.55077 | 6.95292 | 15 ft | 0 kts | 78° |